createdAt,value
2022-09-06T00:06:23.347Z,17.84
2022-09-06T00:26:23.313Z,17.84
2022-09-06T01:06:23.297Z,17.85
2022-09-06T02:26:22.630Z,17.85
2022-09-06T02:46:23.182Z,17.85
2022-09-06T03:06:22.998Z,17.85
2022-09-06T03:26:22.942Z,17.84
2022-09-06T03:46:23.117Z,17.84
2022-09-06T04:06:23.004Z,17.84
2022-09-06T04:26:22.982Z,17.84
2022-09-06T04:46:29.962Z,17.84
2022-09-06T05:06:22.940Z,17.84
2022-09-06T05:26:22.770Z,17.84
2022-09-06T05:46:22.342Z,17.84
2022-09-06T06:26:22.806Z,17.84
2022-09-06T07:26:21.937Z,17.83
2022-09-06T08:26:22.621Z,17.82
2022-09-06T08:46:22.624Z,17.81
2022-09-06T09:06:22.567Z,17.81
2022-09-06T09:26:22.523Z,17.81
2022-09-06T09:46:22.562Z,17.8
2022-09-06T10:26:22.447Z,17.8
2022-09-06T10:46:21.969Z,17.8
2022-09-06T11:06:23.335Z,17.8
2022-09-06T11:26:22.371Z,17.8
2022-09-06T11:46:22.431Z,17.8
2022-09-06T12:06:22.336Z,17.81
2022-09-06T12:26:22.320Z,17.82
2022-09-06T12:46:22.365Z,17.83
2022-09-06T13:06:26.194Z,17.83
2022-09-06T13:26:22.257Z,17.84
2022-09-06T13:46:22.361Z,17.84
2022-09-06T14:06:22.274Z,17.85
2022-09-06T14:26:22.075Z,17.85
2022-09-06T14:46:22.346Z,17.85
2022-09-06T15:06:21.647Z,17.86
2022-09-06T15:46:22.232Z,17.88
2022-09-06T16:26:22.075Z,17.93
2022-09-06T16:46:22.157Z,17.94
2022-09-06T17:06:22.004Z,17.95
2022-09-06T17:46:25.354Z,17.97
2022-09-06T18:06:21.909Z,17.99
2022-09-06T19:46:21.796Z,18.05
2022-09-06T20:26:21.702Z,18.05
2022-09-06T20:46:21.750Z,18.06
2022-09-06T21:06:21.639Z,18.06
2022-09-06T21:46:21.630Z,18.08
2022-09-06T22:06:21.025Z,18.09
2022-09-06T22:46:21.554Z,18.11
2022-09-06T23:06:21.462Z,18.11
2022-09-06T23:26:21.439Z,18.12
